X  Κλείσε Στοιχεία αεροπορικών μετεωρολογικών δεδομένων METAR        LGTS Thessaloniki Macedonia International
θερμοκρασία
63°F θερμοκρασία
52°F Σημείο δρόσου
68% Υγρασία



Ανεμος
10 MPH
17 KM/H
4 M/S
9 KTS



190°
N
Τρέχουσες συνθήκες

Mostly Sunny Κυρίως αίθριος
πίεση 1013 (hPa) - 29.91 (inHg)
Ορατότητα 6 (μίλι) - 10 (km)
Aεροδρόμιο
Κωδικός αεροδρομίου LGTS

Τοποθεσία: Thessaloniki Macedonia International
Απόσταση: 85 (mi)

Metar:
METAR LGTS 031250Z 19009KT 140V250 9999 FEW020 17/11 Q1013 NOSIG

ώρα: 03-03-2024 14:50 EET